Pagrindinis puslapis
METAR-TAF:

METAR-TAF

Oro uostai :

Incirlik, Turkija

platuma: 37-00N, ilguma: 035-25E, Aukštis: 73 m

Dabartinis oras

Ataskaita buvo paskelbta 41 minutes, ne 23:50 UTC
Ramus vėjas
Temperatūra 15°C
Drėgmė 100%
Slėgis 1013 hPa
Matomumas 10 km arba daugiau
nėra debesų žemiau 1500 m ir nėra kamuolinių lietaus debesų

METAR: LTAG 312350Z 00000KT CAVOK 15/15 Q1013 NOSIG RMK SKC

Laikas: 03:31 (00:31 UTC)

Prognozė

Ataskaita buvo paskelbta 1 valandą ir 51 minutes, ne 22:40 UTC
Prognozė galioja nuo 01 metu 00 UTC su 01 metu 24 UTC
Vėjas 2 kt nuo kintamojo kryptimis
Matomumas 10 km arba daugiau
nėra debesų žemiau 1500 m ir nėra kamuolinių lietaus debesų
Tapsmas
nuo 01 metu 08 UTC su 01 metu 10 UTC
Vėjas 12 kt iš Pietų/Pietvakarių
Išsisklaidę debesys ne aukštis 3500 ft
Tapsmas
nuo 01 metu 16 UTC su 01 metu 18 UTC
Vėjas 2 kt nuo kintamojo kryptimis

TAF: LTAG 312240Z 0100/0124 VRB02KT CAVOK BECMG 0108/0110 21012KT SCT035 BECMG 0116/0118 VRB02KT

Orai ataskaitas ir orų prognozės (METAR, TAF).

turimą stotys yra geltonos ir raudonos taškus žemėlapyje.

Perkelti pele per norėdami pamatyti stoties vardą.

Tada spustelėkite, norėdami matyti oro stebėjimo ir prognozės.

Norėdami pakeisti žemėlapį: spustelėkite ant žalios mygtukų su juodo kryžiaus žemyn,; žalią mygtuką su brūkšneliu, jei norite nutolinti; arba žalių rodyklių gretimoms žemėlapius.


METAR-TAF: